createdAt,value
2022-11-20T00:01:25.572Z,99511.47
2022-11-20T00:03:54.894Z,99515.56
2022-11-20T00:06:22.945Z,99505.28
2022-11-20T00:08:50.903Z,99504.09
2022-11-20T00:11:20.400Z,99508.16
2022-11-20T00:13:51.124Z,99507.44
2022-11-20T00:16:21.481Z,99511.28
2022-11-20T00:18:49.119Z,99519.13
2022-11-20T00:21:27.615Z,99513.88
2022-11-20T00:23:56.020Z,99508.03
2022-11-20T00:26:25.400Z,99510.31
2022-11-20T00:28:55.474Z,99518.31
2022-11-20T00:31:23.093Z,99500.13
2022-11-20T00:33:50.453Z,99514.94
2022-11-20T00:36:22.760Z,99511.47
2022-11-20T00:38:54.499Z,99521.22
2022-11-20T00:41:22.179Z,99518.88
2022-11-20T00:43:49.760Z,99515.91
2022-11-20T00:46:20.074Z,99513.16
2022-11-20T00:48:47.602Z,99505.38
2022-11-20T00:51:17.098Z,99516.13
2022-11-20T00:53:44.641Z,99514.66
2022-11-20T00:56:17.194Z,99520.81
2022-11-20T00:58:47.464Z,99512.81
2022-11-20T01:01:18.765Z,99527.47
2022-11-20T01:03:48.365Z,99524.72
2022-11-20T01:06:24.395Z,99529.53
2022-11-20T01:08:53.565Z,99514.53
2022-11-20T01:11:32.087Z,99517.28
2022-11-20T01:14:01.864Z,99525.25
2022-11-20T01:16:32.382Z,99511.00
2022-11-20T01:19:01.399Z,99516.91
2022-11-20T01:21:31.570Z,99515.28
2022-11-20T01:23:59.638Z,99519.63
2022-11-20T01:26:31.297Z,99521.06
2022-11-20T01:28:59.050Z,99514.38
2022-11-20T01:31:37.851Z,99529.09
2022-11-20T01:34:07.686Z,99519.91
2022-11-20T01:36:36.882Z,99523.00
2022-11-20T01:39:09.012Z,99525.41
2022-11-20T01:41:54.704Z,99527.72
2022-11-20T01:44:43.038Z,99525.56
2022-11-20T01:47:14.090Z,99534.88
2022-11-20T01:49:49.532Z,99535.47
2022-11-20T01:52:20.616Z,99526.41
2022-11-20T01:55:14.151Z,99529.66
2022-11-20T01:57:42.061Z,99543.16
2022-11-20T02:00:12.100Z,99540.41
2022-11-20T02:02:47.079Z,99552.63
2022-11-20T02:05:35.075Z,99552.81
2022-11-20T02:08:04.300Z,99550.91
2022-11-20T02:10:32.074Z,99560.63
2022-11-20T02:13:18.770Z,99558.06
2022-11-20T02:15:46.693Z,99559.25
2022-11-20T02:18:17.202Z,99561.38
2022-11-20T02:20:46.350Z,99572.41
2022-11-20T02:23:22.022Z,99572.72
2022-11-20T02:25:50.317Z,99567.47
2022-11-20T02:28:18.686Z,99580.06
2022-11-20T02:30:45.680Z,99574.53
2022-11-20T02:33:13.476Z,99574.06
2022-11-20T02:35:47.054Z,99584.13
2022-11-20T02:38:15.468Z,99590.59
2022-11-20T02:40:43.252Z,99587.75
2022-11-20T02:43:11.267Z,99583.34
2022-11-20T02:45:38.728Z,99576.66
2022-11-20T02:48:08.040Z,99585.63
2022-11-20T02:50:38.938Z,99589.91
2022-11-20T02:53:06.107Z,99580.06
2022-11-20T02:55:33.515Z,99583.16
2022-11-20T02:58:00.514Z,99563.13
2022-11-20T03:00:27.493Z,99570.31
2022-11-20T03:02:54.494Z,99569.78
2022-11-20T03:05:21.611Z,99578.81
2022-11-20T03:07:48.708Z,99579.97
2022-11-20T03:10:15.723Z,99588.13
2022-11-20T03:12:42.666Z,99588.34
2022-11-20T03:15:10.304Z,99575.72
2022-11-20T03:17:37.653Z,99585.31
2022-11-20T03:20:05.301Z,99588.03
2022-11-20T03:22:32.504Z,99598.34
2022-11-20T03:24:59.608Z,99591.41
2022-11-20T03:27:26.569Z,99587.94
2022-11-20T03:29:53.909Z,99603.13
2022-11-20T03:32:21.068Z,99589.00
2022-11-20T03:34:48.166Z,99595.72
2022-11-20T03:37:15.223Z,99584.50
2022-11-20T03:39:42.336Z,99600.13
2022-11-20T03:42:29.986Z,99591.63
2022-11-20T03:44:56.998Z,99584.34
2022-11-20T03:47:23.985Z,99582.56
2022-11-20T03:49:51.330Z,99595.59
2022-11-20T03:52:18.275Z,99599.63
2022-11-20T03:54:47.369Z,99602.22
2022-11-20T03:57:14.546Z,99602.00
2022-11-20T03:59:41.645Z,99600.28
2022-11-20T04:02:08.609Z,99612.88
2022-11-20T04:04:35.637Z,99605.16
2022-11-20T04:07:54.334Z,99618.59
2022-11-20T04:10:24.454Z,99608.31
2022-11-20T04:12:53.246Z,99589.53
2022-11-20T04:15:21.284Z,99600.81
2022-11-20T04:17:48.204Z,99630.91
2022-11-20T04:20:15.703Z,99623.84
2022-11-20T04:22:42.614Z,99633.41
2022-11-20T04:25:09.909Z,99629.72
2022-11-20T04:27:36.810Z,99640.56
2022-11-20T04:30:04.490Z,99631.75
2022-11-20T04:32:31.669Z,99641.81
2022-11-20T04:34:58.616Z,99638.22
2022-11-20T04:37:25.590Z,99646.84
2022-11-20T04:39:52.566Z,99641.34
2022-11-20T04:42:31.544Z,99646.59
2022-11-20T04:44:59.669Z,99654.38
2022-11-20T04:47:26.806Z,99654.88
2022-11-20T04:49:53.863Z,99664.78
2022-11-20T04:52:21.175Z,99666.19
2022-11-20T04:54:48.093Z,99671.19
2022-11-20T04:57:15.579Z,99673.59
2022-11-20T04:59:42.738Z,99665.84
2022-11-20T05:02:10.475Z,99680.19
2022-11-20T05:04:37.352Z,99683.25
2022-11-20T05:07:04.943Z,99683.91
2022-11-20T05:09:32.697Z,99684.94
2022-11-20T05:11:59.699Z,99686.94
2022-11-20T05:14:26.805Z,99693.81
2022-11-20T05:16:56.254Z,99691.84
2022-11-20T05:19:23.476Z,99700.78
2022-11-20T05:21:50.512Z,99695.75
2022-11-20T05:24:17.720Z,99699.38
2022-11-20T05:26:52.175Z,99690.25
2022-11-20T05:29:19.379Z,99701.56
2022-11-20T05:31:46.594Z,99711.31
2022-11-20T05:34:13.593Z,99704.03
2022-11-20T05:36:42.972Z,99721.03
2022-11-20T05:39:10.809Z,99719.56
2022-11-20T05:41:37.920Z,99720.06
2022-11-20T05:44:05.049Z,99713.41
2022-11-20T05:46:32.231Z,99714.63
2022-11-20T05:48:59.448Z,99728.06
2022-11-20T05:51:27.673Z,99719.72
2022-11-20T05:53:55.183Z,99733.28
2022-11-20T05:56:23.733Z,99740.63
2022-11-20T05:58:51.291Z,99739.56
2022-11-20T06:01:24.026Z,99739.38
2022-11-20T06:03:52.106Z,99757.69
2022-11-20T06:06:20.633Z,99765.75
2022-11-20T06:08:49.041Z,99754.59
2022-11-20T06:11:17.159Z,99761.06
2022-11-20T06:13:45.769Z,99744.19
2022-11-20T06:16:15.186Z,99734.31
2022-11-20T06:18:42.419Z,99750.09
2022-11-20T06:21:11.797Z,99775.88
2022-11-20T06:23:39.061Z,99778.59
2022-11-20T06:26:11.907Z,99786.78
2022-11-20T06:28:40.048Z,99792.66
2022-11-20T06:31:08.484Z,99791.91
2022-11-20T06:33:35.941Z,99792.88
2022-11-20T06:36:08.934Z,99788.81
2022-11-20T06:38:37.939Z,99792.28
2022-11-20T06:41:12.552Z,99791.53
2022-11-20T06:43:39.519Z,99782.59
2022-11-20T06:46:07.059Z,99787.94
2022-11-20T06:48:34.237Z,99785.66
2022-11-20T06:51:06.240Z,99781.16
2022-11-20T06:53:33.457Z,99766.50
2022-11-20T06:56:00.615Z,99787.25
2022-11-20T06:58:32.226Z,99783.19
2022-11-20T07:01:05.005Z,99789.28
2022-11-20T07:03:32.445Z,99786.22
2022-11-20T07:06:01.116Z,99777.75
2022-11-20T07:08:28.572Z,99776.34
2022-11-20T07:10:59.953Z,99769.41
2022-11-20T07:13:28.149Z,99777.03
2022-11-20T07:15:55.927Z,99783.03
2022-11-20T07:18:25.754Z,99774.28
2022-11-20T07:20:52.637Z,99797.63
2022-11-20T07:23:19.859Z,99791.19
2022-11-20T07:25:46.901Z,99784.25
2022-11-20T07:28:14.992Z,99781.97
2022-11-20T07:30:41.867Z,99775.28
2022-11-20T07:33:09.048Z,99785.13
2022-11-20T07:35:39.940Z,99781.97
2022-11-20T07:38:06.943Z,99796.25
2022-11-20T07:40:33.813Z,99788.00
2022-11-20T07:43:01.399Z,99783.38
2022-11-20T07:45:28.506Z,99801.94
2022-11-20T07:47:55.525Z,99808.78
2022-11-20T07:50:22.682Z,99806.84
2022-11-20T07:52:49.901Z,99818.84
2022-11-20T07:55:17.314Z,99808.88
2022-11-20T07:57:45.150Z,99790.63
2022-11-20T08:00:16.191Z,99800.25
2022-11-20T08:02:43.795Z,99812.38
2022-11-20T08:05:11.494Z,99816.59
2022-11-20T08:07:42.508Z,99822.84
2022-11-20T08:10:15.054Z,99820.19
2022-11-20T08:13:18.875Z,99804.63
2022-11-20T08:16:08.729Z,99837.72
2022-11-20T08:18:35.882Z,99827.94
2022-11-20T08:21:05.497Z,99831.84
2022-11-20T08:23:32.801Z,99819.91
2022-11-20T08:25:59.987Z,99823.44
2022-11-20T08:28:59.377Z,99828.94
2022-11-20T08:31:32.474Z,99833.78
2022-11-20T08:34:20.078Z,99842.81
2022-11-20T08:36:47.365Z,99841.19
2022-11-20T08:39:15.189Z,99841.53
2022-11-20T08:41:46.953Z,99831.59
2022-11-20T08:44:15.887Z,99836.66
2022-11-20T08:46:44.793Z,99842.75
2022-11-20T08:49:13.841Z,99841.06
2022-11-20T08:51:41.533Z,99843.50
2022-11-20T08:54:11.480Z,99854.41
2022-11-20T08:56:41.071Z,99854.81
2022-11-20T08:59:26.958Z,99865.50
2022-11-20T09:01:56.399Z,99872.78
2022-11-20T09:04:23.799Z,99883.00
2022-11-20T09:06:54.008Z,99885.41
2022-11-20T09:10:03.841Z,99884.97
2022-11-20T09:12:41.717Z,99884.41
2022-11-20T09:15:12.989Z,99871.00
2022-11-20T09:17:39.972Z,99882.97
2022-11-20T09:20:07.256Z,99884.41
2022-11-20T09:22:42.158Z,99900.97
2022-11-20T09:25:32.583Z,99896.19
2022-11-20T09:28:00.908Z,99895.72
2022-11-20T09:30:28.650Z,99893.56
2022-11-20T09:33:00.576Z,99937.22
2022-11-20T09:35:28.123Z,99904.38
2022-11-20T09:37:57.575Z,99923.31
2022-11-20T09:40:30.642Z,99919.69
2022-11-20T09:43:25.308Z,99928.22
2022-11-20T09:46:00.441Z,99923.94
2022-11-20T09:48:35.867Z,99925.50
2022-11-20T09:51:38.354Z,99924.63
2022-11-20T09:54:05.254Z,99926.00
2022-11-20T09:56:57.675Z,99925.75
2022-11-20T09:59:35.859Z,99923.13
2022-11-20T10:02:08.012Z,99922.16
2022-11-20T10:04:40.746Z,99921.19
2022-11-20T10:07:37.756Z,99926.22
2022-11-20T10:10:05.796Z,99936.66
2022-11-20T10:12:57.916Z,99933.06
2022-11-20T10:15:47.616Z,99933.19
2022-11-20T10:18:20.452Z,99941.97
2022-11-20T10:20:54.301Z,99945.69
2022-11-20T10:23:42.570Z,99949.25
2022-11-20T10:26:15.537Z,99955.75
2022-11-20T10:28:58.741Z,99952.63
2022-11-20T10:31:39.481Z,99945.66
2022-11-20T10:34:22.735Z,99939.69
2022-11-20T10:37:11.055Z,99951.69
2022-11-20T10:39:47.572Z,99948.91
2022-11-20T10:42:25.602Z,99949.97
2022-11-20T10:45:06.636Z,99941.09
2022-11-20T10:47:34.572Z,99939.19
2022-11-20T10:50:07.084Z,99948.41
2022-11-20T10:52:39.773Z,99962.56
2022-11-20T10:55:26.714Z,99976.75
2022-11-20T10:58:20.325Z,99965.00
2022-11-20T11:00:47.260Z,99962.44
2022-11-20T11:03:32.711Z,99964.75
2022-11-20T11:06:11.753Z,99972.19
2022-11-20T11:08:44.986Z,99974.47
2022-11-20T11:11:42.246Z,99968.81
2022-11-20T11:14:17.510Z,99982.75
2022-11-20T11:16:59.021Z,99972.41
2022-11-20T11:19:32.915Z,99964.88
2022-11-20T11:22:00.910Z,99982.63
2022-11-20T11:27:33.414Z,99987.91
2022-11-20T11:30:35.568Z,99978.56
2022-11-20T11:33:07.672Z,99971.34
2022-11-20T11:35:38.128Z,99993.41
2022-11-20T11:38:16.986Z,99987.91
2022-11-20T11:40:47.657Z,99984.53
2022-11-20T11:43:44.457Z,99978.44
2022-11-20T11:46:38.775Z,99990.28
2022-11-20T11:49:21.390Z,99992.81
2022-11-20T11:52:03.873Z,99988.50
2022-11-20T11:54:38.552Z,99992.22
2022-11-20T11:57:38.487Z,99994.38
2022-11-20T12:00:13.427Z,100001.09
2022-11-20T12:02:47.452Z,99993.63
2022-11-20T12:05:39.250Z,100015.31
2022-11-20T12:08:28.587Z,100002.03
2022-11-20T12:11:02.728Z,99992.41
2022-11-20T12:13:40.565Z,100009.56
2022-11-20T12:16:15.361Z,99997.81
2022-11-20T12:18:47.992Z,100012.13
2022-11-20T12:21:42.019Z,99994.34
2022-11-20T12:24:12.506Z,99998.69
2022-11-20T12:27:18.798Z,99996.03
2022-11-20T12:30:09.650Z,99998.09
2022-11-20T12:33:08.155Z,99998.69
2022-11-20T12:35:54.053Z,99997.84
2022-11-20T12:38:42.930Z,99989.31
2022-11-20T12:41:40.489Z,99999.38
2022-11-20T12:44:40.914Z,99996.25
2022-11-20T12:47:19.752Z,100010.78
2022-11-20T12:50:06.062Z,100007.53
2022-11-20T12:52:57.100Z,100003.47
2022-11-20T12:55:30.013Z,100011.97
2022-11-20T12:58:28.538Z,100022.66
2022-11-20T13:01:49.199Z,100025.41
2022-11-20T13:04:37.321Z,100024.06
2022-11-20T13:07:14.415Z,100032.94
2022-11-20T13:09:51.767Z,100025.22
2022-11-20T13:12:27.021Z,100028.38
2022-11-20T13:15:03.703Z,100028.63
2022-11-20T13:17:58.840Z,100033.41
2022-11-20T13:20:35.455Z,100023.56
2022-11-20T13:23:02.923Z,100019.00
2022-11-20T13:25:35.314Z,100014.06
2022-11-20T13:28:30.261Z,100035.69
2022-11-20T13:30:58.975Z,100024.00
2022-11-20T13:33:33.574Z,100037.25
2022-11-20T13:36:06.760Z,100042.53
2022-11-20T13:38:50.140Z,100049.47
2022-11-20T13:41:40.472Z,100045.25
2022-11-20T13:44:12.836Z,100041.22
2022-11-20T13:46:45.686Z,100043.63
2022-11-20T13:49:31.964Z,100042.28
2022-11-20T13:52:20.701Z,100052.25
2022-11-20T13:55:28.776Z,100057.44
2022-11-20T13:58:01.630Z,100061.50
2022-11-20T14:00:30.788Z,100055.63
2022-11-20T14:03:08.605Z,100059.56
2022-11-20T14:05:39.635Z,100053.44
2022-11-20T14:08:14.482Z,100055.03
2022-11-20T14:10:41.596Z,100053.31
2022-11-20T14:13:18.664Z,100051.88
2022-11-20T14:15:45.742Z,100066.75
2022-11-20T14:18:16.728Z,100076.22
2022-11-20T14:20:47.558Z,100073.50
2022-11-20T14:23:30.794Z,100078.88
2022-11-20T14:25:58.382Z,100080.16
2022-11-20T14:28:32.690Z,100077.53
2022-11-20T14:30:59.925Z,100072.00
2022-11-20T14:33:29.222Z,100069.88
2022-11-20T14:35:58.852Z,100068.22
2022-11-20T14:38:29.672Z,100070.72
2022-11-20T14:41:10.775Z,100092.44
2022-11-20T14:43:38.889Z,100098.16
2022-11-20T14:46:09.814Z,100107.56
2022-11-20T14:48:45.533Z,100111.50
2022-11-20T14:51:24.433Z,100100.31
2022-11-20T14:53:52.168Z,100110.41
2022-11-20T14:56:24.587Z,100096.94
2022-11-20T14:58:59.130Z,100102.75
2022-11-20T15:01:31.907Z,100099.88
2022-11-20T15:04:19.329Z,100092.28
2022-11-20T15:06:55.089Z,100086.75
2022-11-20T15:10:42.059Z,100099.59
2022-11-20T15:13:16.654Z,100101.94
2022-11-20T15:15:51.460Z,100091.66
2022-11-20T15:18:22.366Z,100096.44
2022-11-20T15:20:49.942Z,100092.25
2022-11-20T15:23:21.593Z,100090.47
2022-11-20T15:25:49.862Z,100087.81
2022-11-20T15:28:28.760Z,100088.75
2022-11-20T15:30:57.094Z,100081.34
2022-11-20T15:33:24.092Z,100080.75
2022-11-20T15:35:52.599Z,100090.63
2022-11-20T15:38:19.672Z,100089.41
2022-11-20T15:40:46.998Z,100094.38
2022-11-20T15:43:14.261Z,100094.97
2022-11-20T15:45:42.924Z,100092.44
2022-11-20T15:48:17.230Z,100082.97
2022-11-20T15:51:13.151Z,100076.22
2022-11-20T15:53:41.882Z,100083.59
2022-11-20T15:56:15.815Z,100078.78
2022-11-20T15:58:43.319Z,100079.75
2022-11-20T16:01:16.286Z,100091.38
2022-11-20T16:03:44.059Z,100088.84
2022-11-20T16:06:11.351Z,100108.94
2022-11-20T16:08:38.398Z,100096.72
2022-11-20T16:11:05.730Z,100089.94
2022-11-20T16:13:52.843Z,100096.78
2022-11-20T16:16:29.780Z,100074.03
2022-11-20T16:18:57.164Z,100087.63
2022-11-20T16:21:33.786Z,100080.66
2022-11-20T16:24:03.389Z,100074.44
2022-11-20T16:26:30.928Z,100049.47
2022-11-20T16:29:04.359Z,100071.31
2022-11-20T16:31:31.438Z,100070.72
2022-11-20T16:34:07.162Z,100075.53
2022-11-20T16:36:54.488Z,100060.25
2022-11-20T16:39:23.850Z,100070.13
2022-11-20T16:41:51.412Z,100083.06
2022-11-20T16:44:18.745Z,100066.94
2022-11-20T16:47:15.531Z,100088.34
2022-11-20T16:49:40.327Z,100077.06
2022-11-20T16:52:10.415Z,100087.16
2022-11-20T16:54:51.403Z,100090.06
2022-11-20T16:57:25.206Z,100081.41
2022-11-20T16:59:52.679Z,100070.13
2022-11-20T17:02:20.014Z,100084.28
2022-11-20T17:04:47.338Z,100106.13
2022-11-20T17:07:20.397Z,100087.34
2022-11-20T17:13:05.470Z,100089.47
2022-11-20T17:15:40.094Z,100083.97
2022-11-20T17:18:09.796Z,100050.59
2022-11-20T17:20:46.335Z,100059.94
2022-11-20T17:23:14.713Z,100059.09
2022-11-20T17:25:52.640Z,100064.16
2022-11-20T17:28:23.328Z,100060.53
2022-11-20T17:30:54.818Z,100053.44
2022-11-20T17:33:21.720Z,100078.31
2022-11-20T17:35:48.813Z,100086.63
2022-11-20T17:38:15.905Z,100089.22
2022-11-20T17:40:43.002Z,100093.78
2022-11-20T17:43:10.030Z,100107.34
2022-11-20T17:45:39.939Z,100106.19
2022-11-20T17:48:08.099Z,100097.28
2022-11-20T17:50:35.449Z,100091.28
2022-11-20T17:53:02.790Z,100092.47
2022-11-20T17:55:55.349Z,100102.47
2022-11-20T17:58:22.995Z,100094.88
2022-11-20T18:00:52.527Z,100095.94
2022-11-20T18:03:19.723Z,100096.09
2022-11-20T18:05:46.994Z,100092.75
2022-11-20T18:08:14.250Z,100095.25
2022-11-20T18:10:44.754Z,100086.41
2022-11-20T18:13:14.075Z,100083.03
2022-11-20T18:15:41.112Z,100075.22
2022-11-20T18:18:08.170Z,100076.91
2022-11-20T18:20:39.623Z,100080.72
2022-11-20T18:23:07.080Z,100089.47
2022-11-20T18:25:34.427Z,100086.91
2022-11-20T18:28:01.518Z,100084.03
2022-11-20T18:30:28.628Z,100103.66
2022-11-20T18:32:56.231Z,100116.03
2022-11-20T18:35:23.475Z,100108.00
2022-11-20T18:37:50.512Z,100103.75
2022-11-20T18:40:19.751Z,100110.72
2022-11-20T18:43:06.143Z,100107.97
2022-11-20T18:45:33.339Z,100101.84
2022-11-20T18:48:00.771Z,100097.75
2022-11-20T18:50:28.103Z,100101.22
2022-11-20T18:52:57.753Z,100106.50
2022-11-20T18:55:26.369Z,100113.22
2022-11-20T18:57:55.332Z,100108.69
2022-11-20T19:00:23.451Z,100102.22
2022-11-20T19:03:04.803Z,100095.72
2022-11-20T19:05:41.827Z,100090.69
2022-11-20T19:08:12.000Z,100103.28
2022-11-20T19:10:40.217Z,100090.16
2022-11-20T19:13:07.465Z,100092.25
2022-11-20T19:15:36.214Z,100088.66
2022-11-20T19:18:03.355Z,100069.44
2022-11-20T19:20:32.008Z,100065.34
2022-11-20T19:22:59.134Z,100070.09
2022-11-20T19:25:26.500Z,100071.69
2022-11-20T19:27:54.401Z,100066.19
2022-11-20T19:30:22.497Z,100059.22
2022-11-20T19:32:49.669Z,100051.44
2022-11-20T19:35:16.970Z,100054.81
2022-11-20T19:37:45.260Z,100060.06
2022-11-20T19:40:15.222Z,100058.59
2022-11-20T19:42:42.351Z,100055.47
2022-11-20T19:45:11.919Z,100060.00
2022-11-20T19:48:06.801Z,100069.56
2022-11-20T19:50:26.449Z,100067.69
2022-11-20T19:52:58.492Z,100067.47
2022-11-20T19:55:28.400Z,100069.25
2022-11-20T19:57:56.668Z,100076.56
2022-11-20T20:00:31.197Z,100058.69
2022-11-20T20:03:04.065Z,100074.72
2022-11-20T20:05:31.330Z,100072.00
2022-11-20T20:07:58.445Z,100091.38
2022-11-20T20:10:29.147Z,100083.38
2022-11-20T20:12:59.118Z,100082.34
2022-11-20T20:15:29.988Z,100087.41
2022-11-20T20:17:59.403Z,100103.72
2022-11-20T20:20:28.934Z,100091.41
2022-11-20T20:22:56.042Z,100090.13
2022-11-20T20:25:23.156Z,100099.38
2022-11-20T20:27:50.386Z,100104.84
2022-11-20T20:30:20.134Z,100110.72
2022-11-20T20:32:48.902Z,100099.16
2022-11-20T20:35:18.951Z,100100.22
2022-11-20T20:37:45.941Z,100102.94
2022-11-20T20:40:15.284Z,100090.56
2022-11-20T20:45:34.899Z,100071.72
2022-11-20T20:48:03.933Z,100095.69
2022-11-20T20:50:30.945Z,100098.25
2022-11-20T20:52:58.387Z,100103.16
2022-11-20T20:55:25.849Z,100101.13
2022-11-20T20:57:53.784Z,100112.50
2022-11-20T21:00:21.000Z,100111.84
2022-11-20T21:02:48.286Z,100104.06
2022-11-20T21:05:15.423Z,100082.16
2022-11-20T21:08:11.207Z,100111.09
2022-11-20T21:10:38.370Z,100102.78
2022-11-20T21:13:05.480Z,100117.19
2022-11-20T21:15:32.444Z,100097.75
2022-11-20T21:17:59.387Z,100101.31
2022-11-20T21:20:44.872Z,100090.16
2022-11-20T21:23:12.067Z,100101.13
2022-11-20T21:25:39.714Z,100108.69
2022-11-20T21:28:07.609Z,100104.38
2022-11-20T21:30:35.195Z,100110.78
2022-11-20T21:33:02.278Z,100123.22
2022-11-20T21:35:30.678Z,100096.06
2022-11-20T21:37:57.795Z,100096.16
2022-11-20T21:40:24.792Z,100105.94
2022-11-20T21:42:53.995Z,100092.16
2022-11-20T21:45:21.732Z,100097.09
2022-11-20T21:47:52.024Z,100105.34
2022-11-20T21:50:19.302Z,100088.06
2022-11-20T21:52:46.341Z,100073.75
2022-11-20T21:55:13.392Z,100075.66
2022-11-20T21:57:40.400Z,100076.91
2022-11-20T22:00:08.089Z,100089.44
2022-11-20T22:02:44.600Z,100096.28
2022-11-20T22:05:12.032Z,100099.34
2022-11-20T22:07:43.768Z,100123.75
2022-11-20T22:10:17.087Z,100116.28
2022-11-20T22:12:45.344Z,100111.25
2022-11-20T22:15:12.252Z,100103.22
2022-11-20T22:17:58.199Z,100103.03
2022-11-20T22:20:25.328Z,100101.22
2022-11-20T22:22:52.318Z,100084.72
2022-11-20T22:25:19.243Z,100098.91
2022-11-20T22:27:46.758Z,100095.84
2022-11-20T22:30:14.100Z,100103.53
2022-11-20T22:32:41.125Z,100093.00
2022-11-20T22:35:08.354Z,100100.34
2022-11-20T22:37:35.315Z,100100.13
2022-11-20T22:40:02.337Z,100081.06
2022-11-20T22:42:30.445Z,100095.19
2022-11-20T22:44:57.595Z,100087.50
2022-11-20T22:47:24.707Z,100090.00
2022-11-20T22:49:51.944Z,100072.56
2022-11-20T22:52:19.000Z,100069.47
2022-11-20T22:54:45.962Z,100090.75
2022-11-20T22:57:13.010Z,100092.19
2022-11-20T22:59:41.716Z,100089.03
2022-11-20T23:02:09.107Z,100066.59
2022-11-20T23:04:36.238Z,100089.66
2022-11-20T23:07:04.743Z,100061.63
2022-11-20T23:09:32.002Z,100059.75
2022-11-20T23:11:58.937Z,100074.25
2022-11-20T23:14:27.860Z,100056.00
2022-11-20T23:16:55.130Z,100040.47
2022-11-20T23:19:22.797Z,100059.00
2022-11-20T23:21:49.926Z,100042.03
2022-11-20T23:24:16.970Z,100042.03
2022-11-20T23:26:45.304Z,100040.81
2022-11-20T23:29:13.006Z,100057.25
2022-11-20T23:31:40.025Z,100048.81
2022-11-20T23:34:07.099Z,100046.75
2022-11-20T23:36:34.217Z,100057.56
2022-11-20T23:39:01.239Z,100049.88
2022-11-20T23:41:28.416Z,100054.81
2022-11-20T23:43:55.436Z,100051.91
2022-11-20T23:46:22.704Z,100049.50
2022-11-20T23:48:49.853Z,100053.41
2022-11-20T23:51:17.659Z,100044.09
2022-11-20T23:53:44.688Z,100040.44
2022-11-20T23:56:14.822Z,100027.81
2022-11-20T23:58:42.853Z,100033.91
